sensor_id;sensor_type;location;lat;lon;timestamp;temperature;humidity
70550;DHT22;58101;48.658;2.328;2024-01-30T00:01:44;10.10;99.90
70550;DHT22;58101;48.658;2.328;2024-01-30T00:04:09;10.10;99.90
70550;DHT22;58101;48.658;2.328;2024-01-30T00:06:35;10.20;99.90
70550;DHT22;58101;48.658;2.328;2024-01-30T00:09:00;10.20;99.90
70550;DHT22;58101;48.658;2.328;2024-01-30T00:11:26;10.10;99.90
70550;DHT22;58101;48.658;2.328;2024-01-30T00:13:52;10.20;99.90
70550;DHT22;58101;48.658;2.328;2024-01-30T00:16:24;10.10;99.90
70550;DHT22;58101;48.658;2.328;2024-01-30T00:18:51;10.10;99.90
70550;DHT22;58101;48.658;2.328;2024-01-30T00:21:17;10.10;99.90
70550;DHT22;58101;48.658;2.328;2024-01-30T00:23:43;10.10;99.90
70550;DHT22;58101;48.658;2.328;2024-01-30T00:26:09;10.10;99.90
70550;DHT22;58101;48.658;2.328;2024-01-30T00:28:36;10.10;99.90
70550;DHT22;58101;48.658;2.328;2024-01-30T00:31:01;10.10;99.90
70550;DHT22;58101;48.658;2.328;2024-01-30T00:33:27;10.10;99.90
70550;DHT22;58101;48.658;2.328;2024-01-30T00:35:52;10.10;99.90
70550;DHT22;58101;48.658;2.328;2024-01-30T00:38:18;10.10;99.90
70550;DHT22;58101;48.658;2.328;2024-01-30T00:40:44;10.10;99.90
70550;DHT22;58101;48.658;2.328;2024-01-30T00:43:09;10.10;99.90
70550;DHT22;58101;48.658;2.328;2024-01-30T00:45:35;10.00;99.90
70550;DHT22;58101;48.658;2.328;2024-01-30T00:48:01;10.00;99.90
70550;DHT22;58101;48.658;2.328;2024-01-30T00:50:26;10.00;99.90
70550;DHT22;58101;48.658;2.328;2024-01-30T00:52:52;10.00;99.90
70550;DHT22;58101;48.658;2.328;2024-01-30T00:55:17;10.00;99.90
70550;DHT22;58101;48.658;2.328;2024-01-30T00:57:49;10.00;99.90
70550;DHT22;58101;48.658;2.328;2024-01-30T01:00:15;10.00;99.90
70550;DHT22;58101;48.658;2.328;2024-01-30T01:02:42;10.00;99.90
70550;DHT22;58101;48.658;2.328;2024-01-30T01:05:08;9.90;99.90
70550;DHT22;58101;48.658;2.328;2024-01-30T01:07:37;10.00;99.90
70550;DHT22;58101;48.658;2.328;2024-01-30T01:10:02;9.90;99.90
70550;DHT22;58101;48.658;2.328;2024-01-30T01:12:29;9.90;99.90
70550;DHT22;58101;48.658;2.328;2024-01-30T01:14:54;9.80;99.90
70550;DHT22;58101;48.658;2.328;2024-01-30T01:17:20;9.90;99.90
70550;DHT22;58101;48.658;2.328;2024-01-30T01:19:45;9.80;99.90
70550;DHT22;58101;48.658;2.328;2024-01-30T01:22:11;9.80;99.90
70550;DHT22;58101;48.658;2.328;2024-01-30T01:24:37;9.70;99.90
70550;DHT22;58101;48.658;2.328;2024-01-30T01:27:02;9.60;99.90
70550;DHT22;58101;48.658;2.328;2024-01-30T01:29:28;9.60;99.90
70550;DHT22;58101;48.658;2.328;2024-01-30T01:31:57;9.50;99.90
70550;DHT22;58101;48.658;2.328;2024-01-30T01:34:23;9.50;99.90
70550;DHT22;58101;48.658;2.328;2024-01-30T01:36:50;9.40;99.90
70550;DHT22;58101;48.658;2.328;2024-01-30T01:39:16;9.30;99.90
70550;DHT22;58101;48.658;2.328;2024-01-30T01:41:41;9.40;99.90
70550;DHT22;58101;48.658;2.328;2024-01-30T01:44:07;9.40;99.90
70550;DHT22;58101;48.658;2.328;2024-01-30T01:46:36;9.40;99.90
70550;DHT22;58101;48.658;2.328;2024-01-30T01:49:04;9.60;99.90
70550;DHT22;58101;48.658;2.328;2024-01-30T01:51:31;9.60;99.90
70550;DHT22;58101;48.658;2.328;2024-01-30T01:54:02;9.70;99.90
70550;DHT22;58101;48.658;2.328;2024-01-30T01:56:29;9.70;99.90
70550;DHT22;58101;48.658;2.328;2024-01-30T01:59:00;9.80;99.90
70550;DHT22;58101;48.658;2.328;2024-01-30T02:01:27;9.80;99.90
70550;DHT22;58101;48.658;2.328;2024-01-30T02:03:55;9.80;99.90
70550;DHT22;58101;48.658;2.328;2024-01-30T02:06:21;9.90;99.90
70550;DHT22;58101;48.658;2.328;2024-01-30T02:08:46;9.90;99.90
70550;DHT22;58101;48.658;2.328;2024-01-30T02:11:12;9.90;99.90
70550;DHT22;58101;48.658;2.328;2024-01-30T02:13:38;9.90;99.90
70550;DHT22;58101;48.658;2.328;2024-01-30T02:16:04;9.90;99.90
70550;DHT22;58101;48.658;2.328;2024-01-30T02:18:29;9.90;99.90
70550;DHT22;58101;48.658;2.328;2024-01-30T02:20:58;9.90;99.90
70550;DHT22;58101;48.658;2.328;2024-01-30T02:23:27;10.00;99.90
70550;DHT22;58101;48.658;2.328;2024-01-30T02:25:53;10.10;99.90
70550;DHT22;58101;48.658;2.328;2024-01-30T02:28:19;10.00;99.90
70550;DHT22;58101;48.658;2.328;2024-01-30T02:30:46;10.00;99.90
70550;DHT22;58101;48.658;2.328;2024-01-30T02:33:12;10.00;99.90
70550;DHT22;58101;48.658;2.328;2024-01-30T02:35:38;10.00;99.90
70550;DHT22;58101;48.658;2.328;2024-01-30T02:38:06;10.10;99.90
70550;DHT22;58101;48.658;2.328;2024-01-30T02:40:32;10.10;99.90
70550;DHT22;58101;48.658;2.328;2024-01-30T02:42:59;10.10;99.90
70550;DHT22;58101;48.658;2.328;2024-01-30T02:45:25;10.10;99.90
70550;DHT22;58101;48.658;2.328;2024-01-30T02:47:50;10.10;99.90
70550;DHT22;58101;48.658;2.328;2024-01-30T02:50:16;10.10;99.90
70550;DHT22;58101;48.658;2.328;2024-01-30T02:52:42;10.10;99.90
70550;DHT22;58101;48.658;2.328;2024-01-30T02:55:09;10.00;99.90
70550;DHT22;58101;48.658;2.328;2024-01-30T02:57:35;10.10;99.90
70550;DHT22;58101;48.658;2.328;2024-01-30T03:00:01;10.10;99.90
70550;DHT22;58101;48.658;2.328;2024-01-30T03:02:26;10.00;99.90
70550;DHT22;58101;48.658;2.328;2024-01-30T03:04:52;9.90;99.90
70550;DHT22;58101;48.658;2.328;2024-01-30T03:07:18;9.90;99.90
70550;DHT22;58101;48.658;2.328;2024-01-30T03:09:44;9.90;99.90
70550;DHT22;58101;48.658;2.328;2024-01-30T03:12:09;9.90;99.90
70550;DHT22;58101;48.658;2.328;2024-01-30T03:14:35;9.90;99.90
70550;DHT22;58101;48.658;2.328;2024-01-30T03:17:01;9.80;99.90
70550;DHT22;58101;48.658;2.328;2024-01-30T03:19:27;9.80;99.90
70550;DHT22;58101;48.658;2.328;2024-01-30T03:21:52;9.90;99.90
70550;DHT22;58101;48.658;2.328;2024-01-30T03:24:18;9.70;99.90
70550;DHT22;58101;48.658;2.328;2024-01-30T03:26:43;9.80;99.90
70550;DHT22;58101;48.658;2.328;2024-01-30T03:29:09;9.70;99.90
70550;DHT22;58101;48.658;2.328;2024-01-30T03:31:35;9.70;99.90
70550;DHT22;58101;48.658;2.328;2024-01-30T03:34:01;9.70;99.90
70550;DHT22;58101;48.658;2.328;2024-01-30T03:36:27;9.60;99.90
70550;DHT22;58101;48.658;2.328;2024-01-30T03:38:52;9.60;99.90
70550;DHT22;58101;48.658;2.328;2024-01-30T03:41:18;9.60;99.90
70550;DHT22;58101;48.658;2.328;2024-01-30T03:43:43;9.70;99.90
70550;DHT22;58101;48.658;2.328;2024-01-30T03:46:11;9.70;99.90
70550;DHT22;58101;48.658;2.328;2024-01-30T03:48:37;9.70;99.90
70550;DHT22;58101;48.658;2.328;2024-01-30T03:51:03;9.80;99.90
70550;DHT22;58101;48.658;2.328;2024-01-30T03:53:30;9.80;99.90
70550;DHT22;58101;48.658;2.328;2024-01-30T03:55:55;9.80;99.90
70550;DHT22;58101;48.658;2.328;2024-01-30T03:58:22;9.80;99.90
70550;DHT22;58101;48.658;2.328;2024-01-30T04:00:48;9.80;99.90
70550;DHT22;58101;48.658;2.328;2024-01-30T04:03:14;10.00;99.90
70550;DHT22;58101;48.658;2.328;2024-01-30T04:05:41;10.00;99.90
70550;DHT22;58101;48.658;2.328;2024-01-30T04:08:07;9.90;99.90
70550;DHT22;58101;48.658;2.328;2024-01-30T04:10:33;9.80;99.90
70550;DHT22;58101;48.658;2.328;2024-01-30T04:13:01;9.80;99.90
70550;DHT22;58101;48.658;2.328;2024-01-30T04:15:27;9.80;99.90
70550;DHT22;58101;48.658;2.328;2024-01-30T04:17:57;9.80;99.90
70550;DHT22;58101;48.658;2.328;2024-01-30T04:20:24;9.90;99.90
70550;DHT22;58101;48.658;2.328;2024-01-30T04:22:49;9.90;99.90
70550;DHT22;58101;48.658;2.328;2024-01-30T04:25:15;9.90;99.90
70550;DHT22;58101;48.658;2.328;2024-01-30T04:27:41;9.90;99.90
70550;DHT22;58101;48.658;2.328;2024-01-30T04:30:07;10.00;99.90
70550;DHT22;58101;48.658;2.328;2024-01-30T04:32:33;9.90;99.90
70550;DHT22;58101;48.658;2.328;2024-01-30T04:34:58;9.90;99.90
70550;DHT22;58101;48.658;2.328;2024-01-30T04:37:24;9.90;99.90
70550;DHT22;58101;48.658;2.328;2024-01-30T04:39:50;9.90;99.90
70550;DHT22;58101;48.658;2.328;2024-01-30T04:42:16;10.00;99.90
70550;DHT22;58101;48.658;2.328;2024-01-30T04:44:42;10.00;99.90
70550;DHT22;58101;48.658;2.328;2024-01-30T04:47:08;10.00;99.90
70550;DHT22;58101;48.658;2.328;2024-01-30T04:49:36;10.00;99.90
70550;DHT22;58101;48.658;2.328;2024-01-30T04:52:02;10.00;99.90
70550;DHT22;58101;48.658;2.328;2024-01-30T04:54:27;10.00;99.90
70550;DHT22;58101;48.658;2.328;2024-01-30T04:56:53;10.00;99.90
70550;DHT22;58101;48.658;2.328;2024-01-30T04:59:19;10.00;99.90
70550;DHT22;58101;48.658;2.328;2024-01-30T05:01:44;10.10;99.90
70550;DHT22;58101;48.658;2.328;2024-01-30T05:04:10;10.10;99.90
70550;DHT22;58101;48.658;2.328;2024-01-30T05:06:36;10.10;99.90
70550;DHT22;58101;48.658;2.328;2024-01-30T05:09:02;10.10;99.90
70550;DHT22;58101;48.658;2.328;2024-01-30T05:11:30;10.10;99.90
70550;DHT22;58101;48.658;2.328;2024-01-30T05:13:55;10.10;99.90
70550;DHT22;58101;48.658;2.328;2024-01-30T05:16:21;10.10;99.90
70550;DHT22;58101;48.658;2.328;2024-01-30T05:18:46;10.10;99.90
70550;DHT22;58101;48.658;2.328;2024-01-30T05:21:12;10.10;99.90
70550;DHT22;58101;48.658;2.328;2024-01-30T05:23:38;10.10;99.90
70550;DHT22;58101;48.658;2.328;2024-01-30T05:26:07;10.10;99.90
70550;DHT22;58101;48.658;2.328;2024-01-30T05:28:33;10.30;99.90
70550;DHT22;58101;48.658;2.328;2024-01-30T05:30:58;10.20;99.90
70550;DHT22;58101;48.658;2.328;2024-01-30T05:33:24;10.20;99.90
70550;DHT22;58101;48.658;2.328;2024-01-30T05:35:50;10.20;99.90
70550;DHT22;58101;48.658;2.328;2024-01-30T05:38:16;10.20;99.90
70550;DHT22;58101;48.658;2.328;2024-01-30T05:40:41;10.40;99.90
70550;DHT22;58101;48.658;2.328;2024-01-30T05:43:07;10.20;99.90
70550;DHT22;58101;48.658;2.328;2024-01-30T05:45:33;10.20;99.90
70550;DHT22;58101;48.658;2.328;2024-01-30T05:48:02;10.20;99.90
70550;DHT22;58101;48.658;2.328;2024-01-30T05:50:28;10.20;99.90
70550;DHT22;58101;48.658;2.328;2024-01-30T05:52:53;10.20;99.90
70550;DHT22;58101;48.658;2.328;2024-01-30T05:55:19;10.20;99.90
70550;DHT22;58101;48.658;2.328;2024-01-30T05:57:44;10.30;99.90
70550;DHT22;58101;48.658;2.328;2024-01-30T06:00:10;10.20;99.90
70550;DHT22;58101;48.658;2.328;2024-01-30T06:02:36;10.20;99.90
70550;DHT22;58101;48.658;2.328;2024-01-30T06:05:02;10.20;99.90
70550;DHT22;58101;48.658;2.328;2024-01-30T06:07:27;10.20;99.90
70550;DHT22;58101;48.658;2.328;2024-01-30T06:09:53;10.20;99.90
70550;DHT22;58101;48.658;2.328;2024-01-30T06:12:19;10.20;99.90
70550;DHT22;58101;48.658;2.328;2024-01-30T06:14:44;10.20;99.90
70550;DHT22;58101;48.658;2.328;2024-01-30T06:17:10;10.20;99.90
70550;DHT22;58101;48.658;2.328;2024-01-30T06:19:40;10.10;99.90
70550;DHT22;58101;48.658;2.328;2024-01-30T06:22:05;10.20;99.90
70550;DHT22;58101;48.658;2.328;2024-01-30T06:24:31;10.20;99.90
70550;DHT22;58101;48.658;2.328;2024-01-30T06:26:57;10.20;99.90
70550;DHT22;58101;48.658;2.328;2024-01-30T06:29:22;10.20;99.90
70550;DHT22;58101;48.658;2.328;2024-01-30T06:31:50;10.20;99.90
70550;DHT22;58101;48.658;2.328;2024-01-30T06:34:16;10.20;99.90
70550;DHT22;58101;48.658;2.328;2024-01-30T06:36:41;10.20;99.90
70550;DHT22;58101;48.658;2.328;2024-01-30T06:39:07;10.30;99.90
70550;DHT22;58101;48.658;2.328;2024-01-30T06:41:33;10.20;99.90
70550;DHT22;58101;48.658;2.328;2024-01-30T06:43:59;10.20;99.90
70550;DHT22;58101;48.658;2.328;2024-01-30T06:46:24;10.20;99.90
70550;DHT22;58101;48.658;2.328;2024-01-30T06:48:50;10.20;99.90
70550;DHT22;58101;48.658;2.328;2024-01-30T06:51:16;10.20;99.90
70550;DHT22;58101;48.658;2.328;2024-01-30T06:53:41;10.20;99.90
70550;DHT22;58101;48.658;2.328;2024-01-30T06:56:08;10.20;99.90
70550;DHT22;58101;48.658;2.328;2024-01-30T06:58:36;10.20;99.90
70550;DHT22;58101;48.658;2.328;2024-01-30T07:01:02;10.20;99.90
70550;DHT22;58101;48.658;2.328;2024-01-30T07:03:27;10.20;99.90
70550;DHT22;58101;48.658;2.328;2024-01-30T07:05:53;10.20;99.90
70550;DHT22;58101;48.658;2.328;2024-01-30T07:08:19;10.10;99.90
70550;DHT22;58101;48.658;2.328;2024-01-30T07:10:44;10.10;99.90
70550;DHT22;58101;48.658;2.328;2024-01-30T07:13:11;10.10;99.90
70550;DHT22;58101;48.658;2.328;2024-01-30T07:15:37;10.10;99.90
70550;DHT22;58101;48.658;2.328;2024-01-30T07:18:06;10.20;99.90
70550;DHT22;58101;48.658;2.328;2024-01-30T07:20:31;10.10;99.90
70550;DHT22;58101;48.658;2.328;2024-01-30T07:23:00;10.00;99.90
70550;DHT22;58101;48.658;2.328;2024-01-30T07:25:26;10.10;99.90
70550;DHT22;58101;48.658;2.328;2024-01-30T07:27:55;10.10;99.90
70550;DHT22;58101;48.658;2.328;2024-01-30T07:30:21;10.00;99.90
70550;DHT22;58101;48.658;2.328;2024-01-30T07:32:48;10.10;99.90
70550;DHT22;58101;48.658;2.328;2024-01-30T07:35:14;10.10;99.90
70550;DHT22;58101;48.658;2.328;2024-01-30T07:37:40;10.10;99.90
70550;DHT22;58101;48.658;2.328;2024-01-30T07:40:06;10.10;99.90
70550;DHT22;58101;48.658;2.328;2024-01-30T07:42:32;10.10;99.90
70550;DHT22;58101;48.658;2.328;2024-01-30T07:44:59;10.10;99.90
70550;DHT22;58101;48.658;2.328;2024-01-30T07:47:25;10.20;99.90
70550;DHT22;58101;48.658;2.328;2024-01-30T07:49:51;10.20;99.90
70550;DHT22;58101;48.658;2.328;2024-01-30T07:52:17;10.20;99.90
70550;DHT22;58101;48.658;2.328;2024-01-30T07:54:49;10.10;99.90
70550;DHT22;58101;48.658;2.328;2024-01-30T07:57:14;10.20;99.90
70550;DHT22;58101;48.658;2.328;2024-01-30T07:59:42;10.20;99.90
70550;DHT22;58101;48.658;2.328;2024-01-30T08:02:10;10.20;99.90
70550;DHT22;58101;48.658;2.328;2024-01-30T08:04:36;10.20;99.90
70550;DHT22;58101;48.658;2.328;2024-01-30T08:07:01;10.20;99.90
70550;DHT22;58101;48.658;2.328;2024-01-30T08:09:29;10.20;99.90
70550;DHT22;58101;48.658;2.328;2024-01-30T08:11:55;10.30;99.90
70550;DHT22;58101;48.658;2.328;2024-01-30T08:14:21;10.30;99.90
70550;DHT22;58101;48.658;2.328;2024-01-30T08:16:46;10.30;99.90
70550;DHT22;58101;48.658;2.328;2024-01-30T08:19:12;10.30;99.90
70550;DHT22;58101;48.658;2.328;2024-01-30T08:21:37;10.30;99.90
70550;DHT22;58101;48.658;2.328;2024-01-30T08:24:07;10.30;99.90
70550;DHT22;58101;48.658;2.328;2024-01-30T08:26:33;10.30;99.90
70550;DHT22;58101;48.658;2.328;2024-01-30T08:28:59;10.40;99.90
70550;DHT22;58101;48.658;2.328;2024-01-30T08:31:24;10.40;99.90
70550;DHT22;58101;48.658;2.328;2024-01-30T08:33:50;10.40;99.90
70550;DHT22;58101;48.658;2.328;2024-01-30T08:36:16;10.40;99.90
70550;DHT22;58101;48.658;2.328;2024-01-30T08:38:42;10.40;99.90
70550;DHT22;58101;48.658;2.328;2024-01-30T08:41:08;10.40;99.90
70550;DHT22;58101;48.658;2.328;2024-01-30T08:43:37;10.40;99.90
70550;DHT22;58101;48.658;2.328;2024-01-30T08:46:03;10.40;99.90
70550;DHT22;58101;48.658;2.328;2024-01-30T08:48:29;10.40;99.90
70550;DHT22;58101;48.658;2.328;2024-01-30T08:50:54;10.40;99.90
70550;DHT22;58101;48.658;2.328;2024-01-30T08:53:20;10.40;99.90
70550;DHT22;58101;48.658;2.328;2024-01-30T08:55:46;10.40;99.90
70550;DHT22;58101;48.658;2.328;2024-01-30T08:58:11;10.50;99.90
70550;DHT22;58101;48.658;2.328;2024-01-30T09:00:37;10.50;99.90
70550;DHT22;58101;48.658;2.328;2024-01-30T09:03:06;10.50;99.90
70550;DHT22;58101;48.658;2.328;2024-01-30T09:05:31;10.50;99.90
70550;DHT22;58101;48.658;2.328;2024-01-30T09:08:00;10.50;99.90
70550;DHT22;58101;48.658;2.328;2024-01-30T09:10:26;10.50;99.90
70550;DHT22;58101;48.658;2.328;2024-01-30T09:12:52;10.50;99.90
70550;DHT22;58101;48.658;2.328;2024-01-30T09:15:18;10.50;99.90
70550;DHT22;58101;48.658;2.328;2024-01-30T09:17:44;10.50;99.90
70550;DHT22;58101;48.658;2.328;2024-01-30T09:20:10;10.50;99.90
70550;DHT22;58101;48.658;2.328;2024-01-30T09:22:36;10.50;99.90
70550;DHT22;58101;48.658;2.328;2024-01-30T09:25:01;10.60;99.90
70550;DHT22;58101;48.658;2.328;2024-01-30T09:27:27;10.50;99.90
70550;DHT22;58101;48.658;2.328;2024-01-30T09:29:53;10.50;99.90
70550;DHT22;58101;48.658;2.328;2024-01-30T09:32:18;10.60;99.90
70550;DHT22;58101;48.658;2.328;2024-01-30T09:34:44;10.50;99.90
70550;DHT22;58101;48.658;2.328;2024-01-30T09:37:10;10.50;99.90
70550;DHT22;58101;48.658;2.328;2024-01-30T09:39:35;10.50;99.90
70550;DHT22;58101;48.658;2.328;2024-01-30T09:42:20;10.50;99.90
70550;DHT22;58101;48.658;2.328;2024-01-30T09:44:53;10.60;99.90
70550;DHT22;58101;48.658;2.328;2024-01-30T09:47:19;10.50;99.90
70550;DHT22;58101;48.658;2.328;2024-01-30T09:49:44;10.50;99.90
70550;DHT22;58101;48.658;2.328;2024-01-30T09:52:11;10.60;99.90
70550;DHT22;58101;48.658;2.328;2024-01-30T09:54:38;10.60;99.90
70550;DHT22;58101;48.658;2.328;2024-01-30T09:57:07;10.60;99.90
70550;DHT22;58101;48.658;2.328;2024-01-30T09:59:33;10.60;99.90
70550;DHT22;58101;48.658;2.328;2024-01-30T10:01:58;10.60;99.90
70550;DHT22;58101;48.658;2.328;2024-01-30T10:04:24;10.60;99.90
70550;DHT22;58101;48.658;2.328;2024-01-30T10:06:50;10.60;99.90
70550;DHT22;58101;48.658;2.328;2024-01-30T10:09:16;10.70;99.90
70550;DHT22;58101;48.658;2.328;2024-01-30T10:11:42;10.70;99.90
70550;DHT22;58101;48.658;2.328;2024-01-30T10:14:07;10.70;99.90
70550;DHT22;58101;48.658;2.328;2024-01-30T10:16:34;10.80;99.90
70550;DHT22;58101;48.658;2.328;2024-01-30T10:19:00;10.80;99.90
70550;DHT22;58101;48.658;2.328;2024-01-30T10:21:25;10.80;99.90
70550;DHT22;58101;48.658;2.328;2024-01-30T10:23:51;10.80;99.90
70550;DHT22;58101;48.658;2.328;2024-01-30T10:26:17;10.80;99.90
70550;DHT22;58101;48.658;2.328;2024-01-30T10:28:43;10.90;99.90
70550;DHT22;58101;48.658;2.328;2024-01-30T10:31:09;10.90;99.90
70550;DHT22;58101;48.658;2.328;2024-01-30T10:33:34;10.90;99.90
70550;DHT22;58101;48.658;2.328;2024-01-30T10:36:02;11.00;99.90
70550;DHT22;58101;48.658;2.328;2024-01-30T10:38:31;11.10;99.90
70550;DHT22;58101;48.658;2.328;2024-01-30T10:41:01;11.00;99.90
70550;DHT22;58101;48.658;2.328;2024-01-30T10:43:31;11.00;99.90
70550;DHT22;58101;48.658;2.328;2024-01-30T10:46:06;11.10;99.90
70550;DHT22;58101;48.658;2.328;2024-01-30T10:48:32;11.10;99.90
70550;DHT22;58101;48.658;2.328;2024-01-30T10:51:02;11.10;99.90
70550;DHT22;58101;48.658;2.328;2024-01-30T10:53:32;11.10;99.90
70550;DHT22;58101;48.658;2.328;2024-01-30T10:55:59;11.10;99.90
70550;DHT22;58101;48.658;2.328;2024-01-30T10:58:27;11.10;99.90
70550;DHT22;58101;48.658;2.328;2024-01-30T11:00:52;11.10;99.90
70550;DHT22;58101;48.658;2.328;2024-01-30T11:03:18;11.10;99.90
70550;DHT22;58101;48.658;2.328;2024-01-30T11:05:49;11.10;99.90
70550;DHT22;58101;48.658;2.328;2024-01-30T11:08:23;11.10;99.90
70550;DHT22;58101;48.658;2.328;2024-01-30T11:10:49;11.10;99.90
70550;DHT22;58101;48.658;2.328;2024-01-30T11:13:15;11.20;99.90
70550;DHT22;58101;48.658;2.328;2024-01-30T11:15:41;11.20;99.90
70550;DHT22;58101;48.658;2.328;2024-01-30T11:18:07;11.20;99.90
70550;DHT22;58101;48.658;2.328;2024-01-30T11:20:33;11.30;99.90
70550;DHT22;58101;48.658;2.328;2024-01-30T11:23:01;11.30;99.90
70550;DHT22;58101;48.658;2.328;2024-01-30T11:25:32;11.20;99.90
70550;DHT22;58101;48.658;2.328;2024-01-30T11:27:57;11.30;99.90
70550;DHT22;58101;48.658;2.328;2024-01-30T11:30:24;11.40;99.90
70550;DHT22;58101;48.658;2.328;2024-01-30T11:35:42;11.50;99.90
70550;DHT22;58101;48.658;2.328;2024-01-30T11:38:09;11.60;99.90
70550;DHT22;58101;48.658;2.328;2024-01-30T11:40:36;11.60;99.90
70550;DHT22;58101;48.658;2.328;2024-01-30T11:43:04;11.60;99.90
70550;DHT22;58101;48.658;2.328;2024-01-30T11:45:33;11.60;99.90
70550;DHT22;58101;48.658;2.328;2024-01-30T11:48:03;11.60;99.90
70550;DHT22;58101;48.658;2.328;2024-01-30T11:50:29;11.60;99.90
70550;DHT22;58101;48.658;2.328;2024-01-30T11:52:55;11.60;99.90
70550;DHT22;58101;48.658;2.328;2024-01-30T11:55:22;11.60;99.90
70550;DHT22;58101;48.658;2.328;2024-01-30T11:57:48;11.70;99.90
70550;DHT22;58101;48.658;2.328;2024-01-30T12:00:15;11.70;99.90
70550;DHT22;58101;48.658;2.328;2024-01-30T12:02:42;11.70;99.90
70550;DHT22;58101;48.658;2.328;2024-01-30T12:05:08;11.80;99.90
70550;DHT22;58101;48.658;2.328;2024-01-30T12:07:35;11.80;99.90
70550;DHT22;58101;48.658;2.328;2024-01-30T12:10:00;11.80;99.90
70550;DHT22;58101;48.658;2.328;2024-01-30T12:12:27;11.90;99.90
70550;DHT22;58101;48.658;2.328;2024-01-30T12:14:54;12.10;99.90
70550;DHT22;58101;48.658;2.328;2024-01-30T12:17:31;12.20;99.90
70550;DHT22;58101;48.658;2.328;2024-01-30T12:20:10;12.30;99.90
70550;DHT22;58101;48.658;2.328;2024-01-30T12:22:46;12.40;99.90
70550;DHT22;58101;48.658;2.328;2024-01-30T12:25:14;12.50;99.90
70550;DHT22;58101;48.658;2.328;2024-01-30T12:27:42;12.60;99.90
70550;DHT22;58101;48.658;2.328;2024-01-30T12:30:13;12.60;99.90
70550;DHT22;58101;48.658;2.328;2024-01-30T12:32:40;12.60;99.90
70550;DHT22;58101;48.658;2.328;2024-01-30T12:35:11;12.70;99.90
70550;DHT22;58101;48.658;2.328;2024-01-30T12:37:38;12.70;99.90
70550;DHT22;58101;48.658;2.328;2024-01-30T12:40:11;12.80;99.90
70550;DHT22;58101;48.658;2.328;2024-01-30T12:42:38;12.70;99.90
70550;DHT22;58101;48.658;2.328;2024-01-30T12:45:04;12.80;99.90
70550;DHT22;58101;48.658;2.328;2024-01-30T12:47:30;12.90;99.90
70550;DHT22;58101;48.658;2.328;2024-01-30T12:49:56;13.00;99.90
70550;DHT22;58101;48.658;2.328;2024-01-30T12:52:22;13.00;99.90
70550;DHT22;58101;48.658;2.328;2024-01-30T12:54:49;13.00;99.90
70550;DHT22;58101;48.658;2.328;2024-01-30T12:57:15;13.00;99.90
70550;DHT22;58101;48.658;2.328;2024-01-30T12:59:40;12.80;99.90
70550;DHT22;58101;48.658;2.328;2024-01-30T13:02:07;12.70;99.90
70550;DHT22;58101;48.658;2.328;2024-01-30T13:04:33;12.70;99.90
70550;DHT22;58101;48.658;2.328;2024-01-30T13:06:58;12.70;99.90
70550;DHT22;58101;48.658;2.328;2024-01-30T13:09:26;12.60;99.90
70550;DHT22;58101;48.658;2.328;2024-01-30T13:11:51;12.50;99.90
70550;DHT22;58101;48.658;2.328;2024-01-30T13:14:17;12.50;99.90
70550;DHT22;58101;48.658;2.328;2024-01-30T13:16:43;12.40;99.90
70550;DHT22;58101;48.658;2.328;2024-01-30T13:19:09;12.30;99.90
70550;DHT22;58101;48.658;2.328;2024-01-30T13:21:34;12.30;99.90
70550;DHT22;58101;48.658;2.328;2024-01-30T13:24:00;12.20;99.90
70550;DHT22;58101;48.658;2.328;2024-01-30T13:26:25;12.10;99.90
70550;DHT22;58101;48.658;2.328;2024-01-30T13:28:51;12.10;99.90
70550;DHT22;58101;48.658;2.328;2024-01-30T13:31:17;12.00;99.90
70550;DHT22;58101;48.658;2.328;2024-01-30T13:33:44;11.90;99.90
70550;DHT22;58101;48.658;2.328;2024-01-30T13:36:11;11.90;99.90
70550;DHT22;58101;48.658;2.328;2024-01-30T13:38:37;11.80;99.90
70550;DHT22;58101;48.658;2.328;2024-01-30T13:41:03;11.90;99.90
70550;DHT22;58101;48.658;2.328;2024-01-30T13:43:29;11.80;99.90
70550;DHT22;58101;48.658;2.328;2024-01-30T13:45:54;12.00;99.90
70550;DHT22;58101;48.658;2.328;2024-01-30T13:48:20;11.80;99.90
70550;DHT22;58101;48.658;2.328;2024-01-30T13:50:46;11.80;99.90
70550;DHT22;58101;48.658;2.328;2024-01-30T13:53:12;11.80;99.90
70550;DHT22;58101;48.658;2.328;2024-01-30T13:55:37;11.70;99.90
70550;DHT22;58101;48.658;2.328;2024-01-30T13:58:05;11.80;99.90
70550;DHT22;58101;48.658;2.328;2024-01-30T14:00:30;11.80;99.90
70550;DHT22;58101;48.658;2.328;2024-01-30T14:02:56;11.80;99.90
70550;DHT22;58101;48.658;2.328;2024-01-30T14:05:24;11.80;99.90
70550;DHT22;58101;48.658;2.328;2024-01-30T14:07:50;11.80;99.90
70550;DHT22;58101;48.658;2.328;2024-01-30T14:10:16;11.80;99.90
70550;DHT22;58101;48.658;2.328;2024-01-30T14:12:45;11.80;99.90
70550;DHT22;58101;48.658;2.328;2024-01-30T14:15:12;11.80;99.90
70550;DHT22;58101;48.658;2.328;2024-01-30T14:17:43;11.80;99.90
70550;DHT22;58101;48.658;2.328;2024-01-30T14:20:08;11.80;99.90
70550;DHT22;58101;48.658;2.328;2024-01-30T14:22:37;11.80;99.90
70550;DHT22;58101;48.658;2.328;2024-01-30T14:25:06;11.80;99.90
70550;DHT22;58101;48.658;2.328;2024-01-30T14:27:33;11.80;99.90
70550;DHT22;58101;48.658;2.328;2024-01-30T14:29:58;11.80;99.90
70550;DHT22;58101;48.658;2.328;2024-01-30T14:32:24;11.80;99.90
70550;DHT22;58101;48.658;2.328;2024-01-30T14:34:50;11.70;99.90
70550;DHT22;58101;48.658;2.328;2024-01-30T14:37:17;11.70;99.90
70550;DHT22;58101;48.658;2.328;2024-01-30T14:39:43;11.70;99.90
70550;DHT22;58101;48.658;2.328;2024-01-30T14:42:09;11.70;99.90
70550;DHT22;58101;48.658;2.328;2024-01-30T14:44:35;11.90;99.90
70550;DHT22;58101;48.658;2.328;2024-01-30T14:47:01;11.70;99.90
70550;DHT22;58101;48.658;2.328;2024-01-30T14:49:27;11.70;99.90
70550;DHT22;58101;48.658;2.328;2024-01-30T14:51:53;11.70;99.90
70550;DHT22;58101;48.658;2.328;2024-01-30T14:54:18;11.70;99.90
70550;DHT22;58101;48.658;2.328;2024-01-30T14:56:44;11.70;99.90
70550;DHT22;58101;48.658;2.328;2024-01-30T14:59:10;11.60;99.90
70550;DHT22;58101;48.658;2.328;2024-01-30T15:01:36;11.70;99.90
70550;DHT22;58101;48.658;2.328;2024-01-30T15:04:02;11.60;99.90
70550;DHT22;58101;48.658;2.328;2024-01-30T15:06:31;11.70;99.90
70550;DHT22;58101;48.658;2.328;2024-01-30T15:08:56;11.70;99.90
70550;DHT22;58101;48.658;2.328;2024-01-30T15:11:22;11.70;99.90
70550;DHT22;58101;48.658;2.328;2024-01-30T15:13:47;11.80;99.90
70550;DHT22;58101;48.658;2.328;2024-01-30T15:16:13;11.60;99.90
70550;DHT22;58101;48.658;2.328;2024-01-30T15:18:39;11.60;99.90
70550;DHT22;58101;48.658;2.328;2024-01-30T15:21:05;11.70;99.90
70550;DHT22;58101;48.658;2.328;2024-01-30T15:23:30;11.50;99.90
70550;DHT22;58101;48.658;2.328;2024-01-30T15:25:56;11.60;99.90
70550;DHT22;58101;48.658;2.328;2024-01-30T15:28:38;11.60;99.90
70550;DHT22;58101;48.658;2.328;2024-01-30T15:31:04;11.60;99.90